sensor_id;sensor_type;location;lat;lon;timestamp;pressure;altitude;pressure_sealevel;temperature;humidity
77975;BME280;67164;51.202;0.278;2023-07-30T00:01:15;100674.92;;;27.09;40.71
77975;BME280;67164;51.202;0.278;2023-07-30T00:03:41;100673.42;;;26.86;40.68
77975;BME280;67164;51.202;0.278;2023-07-30T00:06:06;100671.31;;;26.84;40.65
77975;BME280;67164;51.202;0.278;2023-07-30T00:08:32;100672.50;;;26.60;41.00
77975;BME280;67164;51.202;0.278;2023-07-30T00:10:59;100670.55;;;26.53;41.20
77975;BME280;67164;51.202;0.278;2023-07-30T00:13:24;100667.64;;;26.73;40.93
77975;BME280;67164;51.202;0.278;2023-07-30T00:15:51;100668.89;;;26.91;41.02
77975;BME280;67164;51.202;0.278;2023-07-30T00:18:16;100676.06;;;26.73;40.88
77975;BME280;67164;51.202;0.278;2023-07-30T00:20:41;100675.53;;;26.79;40.72
77975;BME280;67164;51.202;0.278;2023-07-30T00:23:07;100670.52;;;26.90;41.18
77975;BME280;67164;51.202;0.278;2023-07-30T00:25:33;100671.25;;;26.33;41.01
77975;BME280;67164;51.202;0.278;2023-07-30T00:27:59;100669.94;;;26.52;41.04
77975;BME280;67164;51.202;0.278;2023-07-30T00:30:24;100669.81;;;26.74;40.91
77975;BME280;67164;51.202;0.278;2023-07-30T00:32:50;100671.97;;;26.70;40.90
77975;BME280;67164;51.202;0.278;2023-07-30T00:35:16;100674.42;;;26.70;41.18
77975;BME280;67164;51.202;0.278;2023-07-30T00:37:42;100677.82;;;26.69;40.94
77975;BME280;67164;51.202;0.278;2023-07-30T00:40:08;100676.12;;;26.74;40.89
77975;BME280;67164;51.202;0.278;2023-07-30T00:42:33;100669.98;;;26.73;40.87
77975;BME280;67164;51.202;0.278;2023-07-30T00:44:59;100668.44;;;26.52;41.08
77975;BME280;67164;51.202;0.278;2023-07-30T00:47:26;100664.24;;;26.45;41.26
77975;BME280;67164;51.202;0.278;2023-07-30T00:49:51;100666.77;;;26.52;41.09
77975;BME280;67164;51.202;0.278;2023-07-30T00:52:18;100665.08;;;26.40;41.26
77975;BME280;67164;51.202;0.278;2023-07-30T00:54:42;100661.71;;;26.69;40.96
77975;BME280;67164;51.202;0.278;2023-07-30T00:57:09;100662.98;;;26.49;41.08
77975;BME280;67164;51.202;0.278;2023-07-30T00:59:34;100663.99;;;26.61;41.01
77975;BME280;67164;51.202;0.278;2023-07-30T01:01:59;100667.79;;;26.54;41.06
77975;BME280;67164;51.202;0.278;2023-07-30T01:04:25;100666.81;;;26.66;41.27
77975;BME280;67164;51.202;0.278;2023-07-30T01:06:51;100668.19;;;26.61;40.94
77975;BME280;67164;51.202;0.278;2023-07-30T01:09:17;100662.26;;;26.45;41.18
77975;BME280;67164;51.202;0.278;2023-07-30T01:11:43;100658.67;;;26.26;41.43
77975;BME280;67164;51.202;0.278;2023-07-30T01:14:09;100659.61;;;26.47;41.27
77975;BME280;67164;51.202;0.278;2023-07-30T01:16:34;100661.58;;;26.71;41.21
77975;BME280;67164;51.202;0.278;2023-07-30T01:19:00;100659.35;;;26.57;41.31
77975;BME280;67164;51.202;0.278;2023-07-30T01:21:26;100657.86;;;26.78;41.20
77975;BME280;67164;51.202;0.278;2023-07-30T01:23:51;100655.56;;;26.31;41.31
77975;BME280;67164;51.202;0.278;2023-07-30T01:26:22;100663.95;;;26.36;41.36
77975;BME280;67164;51.202;0.278;2023-07-30T01:28:46;100662.89;;;26.36;41.31
77975;BME280;67164;51.202;0.278;2023-07-30T01:31:09;100666.24;;;26.49;41.18
77975;BME280;67164;51.202;0.278;2023-07-30T01:33:34;100668.96;;;26.33;41.27
77975;BME280;67164;51.202;0.278;2023-07-30T01:36:01;100675.04;;;26.47;41.05
77975;BME280;67164;51.202;0.278;2023-07-30T01:38:26;100674.97;;;26.35;41.45
77975;BME280;67164;51.202;0.278;2023-07-30T01:40:51;100676.16;;;26.23;41.42
77975;BME280;67164;51.202;0.278;2023-07-30T01:43:17;100674.91;;;26.19;41.42
77975;BME280;67164;51.202;0.278;2023-07-30T01:45:43;100668.54;;;26.48;41.04
77975;BME280;67164;51.202;0.278;2023-07-30T01:48:09;100666.65;;;26.73;41.09
77975;BME280;67164;51.202;0.278;2023-07-30T01:50:34;100669.15;;;26.24;41.28
77975;BME280;67164;51.202;0.278;2023-07-30T01:53:00;100668.80;;;26.50;41.47
77975;BME280;67164;51.202;0.278;2023-07-30T01:55:26;100668.54;;;26.50;41.12
77975;BME280;67164;51.202;0.278;2023-07-30T01:57:52;100668.69;;;26.29;41.30
77975;BME280;67164;51.202;0.278;2023-07-30T02:00:18;100673.78;;;26.33;41.18
77975;BME280;67164;51.202;0.278;2023-07-30T02:02:43;100671.39;;;26.70;41.01
77975;BME280;67164;51.202;0.278;2023-07-30T02:05:10;100674.15;;;26.12;41.36
77975;BME280;67164;51.202;0.278;2023-07-30T02:07:36;100674.69;;;26.65;41.08
77975;BME280;67164;51.202;0.278;2023-07-30T02:10:01;100669.14;;;26.46;41.12
77975;BME280;67164;51.202;0.278;2023-07-30T02:12:28;100676.23;;;26.26;41.43
77975;BME280;67164;51.202;0.278;2023-07-30T02:14:53;100676.24;;;26.18;41.49
77975;BME280;67164;51.202;0.278;2023-07-30T02:17:18;100669.07;;;26.10;41.60
77975;BME280;67164;51.202;0.278;2023-07-30T02:19:44;100666.18;;;26.50;41.46
77975;BME280;67164;51.202;0.278;2023-07-30T02:22:10;100669.23;;;26.74;41.46
77975;BME280;67164;51.202;0.278;2023-07-30T02:24:35;100667.77;;;26.39;41.24
77975;BME280;67164;51.202;0.278;2023-07-30T02:27:01;100668.17;;;26.54;41.38
77975;BME280;67164;51.202;0.278;2023-07-30T02:29:28;100670.59;;;26.22;41.33
77975;BME280;67164;51.202;0.278;2023-07-30T02:31:53;100671.30;;;26.39;41.56
77975;BME280;67164;51.202;0.278;2023-07-30T02:34:18;100672.37;;;26.32;41.36
77975;BME280;67164;51.202;0.278;2023-07-30T02:36:44;100677.73;;;26.12;41.59
77975;BME280;67164;51.202;0.278;2023-07-30T02:39:10;100679.36;;;26.13;41.63
77975;BME280;67164;51.202;0.278;2023-07-30T02:41:36;100674.47;;;26.66;41.17
77975;BME280;67164;51.202;0.278;2023-07-30T02:44:02;100673.66;;;26.37;41.19
77975;BME280;67164;51.202;0.278;2023-07-30T02:46:27;100675.76;;;26.35;41.26
77975;BME280;67164;51.202;0.278;2023-07-30T02:48:53;100674.11;;;26.19;41.50
77975;BME280;67164;51.202;0.278;2023-07-30T02:51:19;100673.40;;;26.43;41.53
77975;BME280;67164;51.202;0.278;2023-07-30T02:53:52;100669.50;;;26.43;41.54
77975;BME280;67164;51.202;0.278;2023-07-30T02:56:10;100668.04;;;26.11;41.66
77975;BME280;67164;51.202;0.278;2023-07-30T02:58:36;100663.95;;;26.16;41.44
77975;BME280;67164;51.202;0.278;2023-07-30T03:01:06;100672.70;;;26.15;41.39
77975;BME280;67164;51.202;0.278;2023-07-30T03:03:28;100676.94;;;26.13;41.54
77975;BME280;67164;51.202;0.278;2023-07-30T03:05:54;100676.87;;;26.07;41.83
77975;BME280;67164;51.202;0.278;2023-07-30T03:08:19;100680.06;;;26.18;41.42
77975;BME280;67164;51.202;0.278;2023-07-30T03:10:45;100678.00;;;26.39;41.49
77975;BME280;67164;51.202;0.278;2023-07-30T03:13:11;100682.41;;;26.09;41.37
77975;BME280;67164;51.202;0.278;2023-07-30T03:15:37;100681.93;;;26.17;41.37
77975;BME280;67164;51.202;0.278;2023-07-30T03:18:02;100683.13;;;26.32;41.10
77975;BME280;67164;51.202;0.278;2023-07-30T03:20:28;100685.38;;;26.50;41.19
77975;BME280;67164;51.202;0.278;2023-07-30T03:22:54;100684.75;;;26.11;41.62
77975;BME280;67164;51.202;0.278;2023-07-30T03:25:20;100692.05;;;26.20;41.60
77975;BME280;67164;51.202;0.278;2023-07-30T03:27:45;100689.47;;;26.21;41.52
77975;BME280;67164;51.202;0.278;2023-07-30T03:30:11;100690.42;;;26.85;40.92
77975;BME280;67164;51.202;0.278;2023-07-30T03:32:37;100690.30;;;26.69;40.39
77975;BME280;67164;51.202;0.278;2023-07-30T03:35:03;100689.62;;;27.06;39.97
77975;BME280;67164;51.202;0.278;2023-07-30T03:37:29;100692.93;;;26.64;40.07
77975;BME280;67164;51.202;0.278;2023-07-30T03:39:54;100700.01;;;26.86;39.43
77975;BME280;67164;51.202;0.278;2023-07-30T03:42:20;100700.48;;;26.63;39.34
77975;BME280;67164;51.202;0.278;2023-07-30T03:44:46;100695.79;;;26.64;39.15
77975;BME280;67164;51.202;0.278;2023-07-30T03:47:12;100698.59;;;26.77;38.79
77975;BME280;67164;51.202;0.278;2023-07-30T03:49:38;100697.72;;;26.98;38.83
77975;BME280;67164;51.202;0.278;2023-07-30T03:52:04;100694.61;;;27.09;38.27
77975;BME280;67164;51.202;0.278;2023-07-30T03:54:29;100687.46;;;26.94;38.72
77975;BME280;67164;51.202;0.278;2023-07-30T03:56:55;100692.61;;;26.54;39.31
77975;BME280;67164;51.202;0.278;2023-07-30T03:59:21;100697.36;;;26.26;39.33
77975;BME280;67164;51.202;0.278;2023-07-30T04:01:46;100700.82;;;26.16;38.83
77975;BME280;67164;51.202;0.278;2023-07-30T04:04:12;100701.65;;;26.67;38.85
77975;BME280;67164;51.202;0.278;2023-07-30T04:06:38;100705.04;;;26.54;38.54
77975;BME280;67164;51.202;0.278;2023-07-30T04:09:04;100706.72;;;26.18;38.62
77975;BME280;67164;51.202;0.278;2023-07-30T04:11:29;100711.23;;;26.13;38.64
77975;BME280;67164;51.202;0.278;2023-07-30T04:13:55;100712.74;;;26.07;38.70
77975;BME280;67164;51.202;0.278;2023-07-30T04:16:21;100717.21;;;26.28;38.83
77975;BME280;67164;51.202;0.278;2023-07-30T04:18:47;100715.31;;;26.60;37.99
77975;BME280;67164;51.202;0.278;2023-07-30T04:21:12;100710.75;;;26.25;38.56
77975;BME280;67164;51.202;0.278;2023-07-30T04:23:38;100714.44;;;26.20;38.52
77975;BME280;67164;51.202;0.278;2023-07-30T04:26:04;100715.15;;;26.22;37.93
77975;BME280;67164;51.202;0.278;2023-07-30T04:28:30;100715.08;;;26.33;37.92
77975;BME280;67164;51.202;0.278;2023-07-30T04:30:55;100716.81;;;26.05;38.11
77975;BME280;67164;51.202;0.278;2023-07-30T04:33:21;100720.99;;;26.47;37.54
77975;BME280;67164;51.202;0.278;2023-07-30T04:35:47;100719.75;;;26.58;37.38
77975;BME280;67164;51.202;0.278;2023-07-30T04:38:13;100717.80;;;26.06;38.06
77975;BME280;67164;51.202;0.278;2023-07-30T04:40:39;100717.36;;;26.46;37.54
77975;BME280;67164;51.202;0.278;2023-07-30T04:43:04;100714.75;;;26.37;37.61
77975;BME280;67164;51.202;0.278;2023-07-30T04:45:30;100716.28;;;26.40;37.67
77975;BME280;67164;51.202;0.278;2023-07-30T04:47:56;100715.81;;;26.14;37.55
77975;BME280;67164;51.202;0.278;2023-07-30T04:50:22;100715.30;;;26.35;37.18
77975;BME280;67164;51.202;0.278;2023-07-30T04:52:48;100719.23;;;25.88;37.38
77975;BME280;67164;51.202;0.278;2023-07-30T04:55:18;100718.94;;;26.22;37.35
77975;BME280;67164;51.202;0.278;2023-07-30T04:57:39;100720.01;;;26.18;37.27
77975;BME280;67164;51.202;0.278;2023-07-30T05:00:06;100721.84;;;26.21;37.30
77975;BME280;67164;51.202;0.278;2023-07-30T05:02:36;100729.07;;;26.06;37.41
77975;BME280;67164;51.202;0.278;2023-07-30T05:04:57;100730.24;;;26.48;36.91
77975;BME280;67164;51.202;0.278;2023-07-30T05:07:22;100733.06;;;26.17;37.04
77975;BME280;67164;51.202;0.278;2023-07-30T05:09:48;100732.40;;;26.26;37.02
77975;BME280;67164;51.202;0.278;2023-07-30T05:12:14;100742.66;;;25.99;37.33
77975;BME280;67164;51.202;0.278;2023-07-30T05:14:40;100738.10;;;26.30;37.21
77975;BME280;67164;51.202;0.278;2023-07-30T05:17:06;100731.27;;;26.04;37.33
77975;BME280;67164;51.202;0.278;2023-07-30T05:19:31;100733.19;;;26.23;37.68
77975;BME280;67164;51.202;0.278;2023-07-30T05:21:57;100736.33;;;25.83;37.89
77975;BME280;67164;51.202;0.278;2023-07-30T05:24:23;100734.67;;;26.52;37.43
77975;BME280;67164;51.202;0.278;2023-07-30T05:26:49;100731.52;;;26.45;37.24
77975;BME280;67164;51.202;0.278;2023-07-30T05:29:14;100742.99;;;26.25;37.06
77975;BME280;67164;51.202;0.278;2023-07-30T05:31:40;100739.84;;;26.37;36.63
77975;BME280;67164;51.202;0.278;2023-07-30T05:34:06;100742.31;;;26.38;36.72
77975;BME280;67164;51.202;0.278;2023-07-30T05:36:32;100744.58;;;26.54;36.40
77975;BME280;67164;51.202;0.278;2023-07-30T05:38:58;100747.03;;;26.38;36.89
77975;BME280;67164;51.202;0.278;2023-07-30T05:41:23;100751.66;;;26.35;36.58
77975;BME280;67164;51.202;0.278;2023-07-30T05:43:49;100752.40;;;26.00;36.66
77975;BME280;67164;51.202;0.278;2023-07-30T05:46:15;100753.35;;;26.58;36.26
77975;BME280;67164;51.202;0.278;2023-07-30T05:48:41;100758.40;;;26.43;36.62
77975;BME280;67164;51.202;0.278;2023-07-30T05:51:06;100756.52;;;25.92;37.24
77975;BME280;67164;51.202;0.278;2023-07-30T05:53:32;100760.31;;;26.13;37.03
77975;BME280;67164;51.202;0.278;2023-07-30T05:55:58;100760.29;;;26.61;36.81
77975;BME280;67164;51.202;0.278;2023-07-30T05:58:24;100765.90;;;26.56;37.28
77975;BME280;67164;51.202;0.278;2023-07-30T06:00:50;100772.79;;;26.85;37.74
77975;BME280;67164;51.202;0.278;2023-07-30T06:03:15;100776.42;;;25.88;37.87
77975;BME280;67164;51.202;0.278;2023-07-30T06:05:42;100785.99;;;26.04;37.95
77975;BME280;67164;51.202;0.278;2023-07-30T06:08:07;100789.77;;;25.94;38.03
77975;BME280;67164;51.202;0.278;2023-07-30T06:10:34;100791.99;;;26.05;38.22
77975;BME280;67164;51.202;0.278;2023-07-30T06:12:59;100792.37;;;25.97;38.07
77975;BME280;67164;51.202;0.278;2023-07-30T06:15:24;100794.96;;;25.99;38.69
77975;BME280;67164;51.202;0.278;2023-07-30T06:17:50;100800.00;;;25.96;38.60
77975;BME280;67164;51.202;0.278;2023-07-30T06:20:16;100798.79;;;26.22;38.41
77975;BME280;67164;51.202;0.278;2023-07-30T06:22:42;100804.49;;;26.51;38.70
77975;BME280;67164;51.202;0.278;2023-07-30T06:25:08;100804.78;;;26.05;38.78
77975;BME280;67164;51.202;0.278;2023-07-30T06:27:33;100799.17;;;25.97;38.43
77975;BME280;67164;51.202;0.278;2023-07-30T06:29:59;100799.68;;;25.95;38.54
77975;BME280;67164;51.202;0.278;2023-07-30T06:32:25;100799.97;;;26.43;38.50
77975;BME280;67164;51.202;0.278;2023-07-30T06:34:50;100798.01;;;25.83;38.90
77975;BME280;67164;51.202;0.278;2023-07-30T06:37:16;100799.65;;;26.27;38.61
77975;BME280;67164;51.202;0.278;2023-07-30T06:39:42;100801.82;;;26.25;38.94
77975;BME280;67164;51.202;0.278;2023-07-30T06:42:07;100813.08;;;26.21;38.93
77975;BME280;67164;51.202;0.278;2023-07-30T06:44:33;100812.98;;;26.00;38.80
77975;BME280;67164;51.202;0.278;2023-07-30T06:46:59;100821.46;;;25.85;39.30
77975;BME280;67164;51.202;0.278;2023-07-30T06:49:25;100816.01;;;25.83;39.39
77975;BME280;67164;51.202;0.278;2023-07-30T06:51:50;100815.62;;;26.18;39.27
77975;BME280;67164;51.202;0.278;2023-07-30T06:54:16;100814.39;;;26.08;39.18
77975;BME280;67164;51.202;0.278;2023-07-30T06:56:42;100817.18;;;26.06;39.60
77975;BME280;67164;51.202;0.278;2023-07-30T06:59:07;100821.14;;;26.38;39.27
77975;BME280;67164;51.202;0.278;2023-07-30T07:01:33;100825.52;;;26.19;39.22
77975;BME280;67164;51.202;0.278;2023-07-30T07:03:59;100825.39;;;26.18;39.42
77975;BME280;67164;51.202;0.278;2023-07-30T07:06:25;100830.15;;;26.39;39.04
77975;BME280;67164;51.202;0.278;2023-07-30T07:08:51;100831.04;;;26.49;39.11
77975;BME280;67164;51.202;0.278;2023-07-30T07:11:16;100838.69;;;26.63;38.97
77975;BME280;67164;51.202;0.278;2023-07-30T07:13:42;100841.44;;;26.67;38.94
77975;BME280;67164;51.202;0.278;2023-07-30T07:16:08;100837.50;;;26.29;39.29
77975;BME280;67164;51.202;0.278;2023-07-30T07:18:34;100843.39;;;26.47;39.26
77975;BME280;67164;51.202;0.278;2023-07-30T07:20:59;100842.39;;;26.49;39.31
77975;BME280;67164;51.202;0.278;2023-07-30T07:23:25;100847.79;;;26.72;39.07
77975;BME280;67164;51.202;0.278;2023-07-30T07:25:51;100840.64;;;26.36;39.26
77975;BME280;67164;51.202;0.278;2023-07-30T07:28:17;100846.21;;;26.57;39.18
77975;BME280;67164;51.202;0.278;2023-07-30T07:30:42;100844.56;;;26.58;39.17
77975;BME280;67164;51.202;0.278;2023-07-30T07:33:08;100842.61;;;26.71;39.17
77975;BME280;67164;51.202;0.278;2023-07-30T07:35:34;100845.06;;;26.48;39.23
77975;BME280;67164;51.202;0.278;2023-07-30T07:38:00;100843.13;;;26.79;39.19
77975;BME280;67164;51.202;0.278;2023-07-30T07:40:25;100837.30;;;26.86;39.20
77975;BME280;67164;51.202;0.278;2023-07-30T07:42:51;100834.38;;;26.70;38.99
77975;BME280;67164;51.202;0.278;2023-07-30T07:45:17;100835.74;;;26.96;38.89
77975;BME280;67164;51.202;0.278;2023-07-30T07:47:43;100832.75;;;27.04;38.82
77975;BME280;67164;51.202;0.278;2023-07-30T07:50:09;100834.82;;;26.86;38.72
77975;BME280;67164;51.202;0.278;2023-07-30T07:52:34;100827.74;;;27.10;38.74
77975;BME280;67164;51.202;0.278;2023-07-30T07:55:00;100828.54;;;27.13;38.77
77975;BME280;67164;51.202;0.278;2023-07-30T07:57:26;100832.06;;;27.50;38.67
77975;BME280;67164;51.202;0.278;2023-07-30T07:59:51;100826.88;;;27.14;38.91
77975;BME280;67164;51.202;0.278;2023-07-30T08:02:17;100819.47;;;27.19;38.86
77975;BME280;67164;51.202;0.278;2023-07-30T08:04:43;100821.20;;;26.93;38.89
77975;BME280;67164;51.202;0.278;2023-07-30T08:07:09;100825.85;;;27.26;38.77
77975;BME280;67164;51.202;0.278;2023-07-30T08:09:35;100826.17;;;27.06;38.68
77975;BME280;67164;51.202;0.278;2023-07-30T08:12:00;100827.09;;;27.15;38.55
77975;BME280;67164;51.202;0.278;2023-07-30T08:14:26;100829.15;;;27.27;38.49
77975;BME280;67164;51.202;0.278;2023-07-30T08:16:52;100829.40;;;27.22;38.55
77975;BME280;67164;51.202;0.278;2023-07-30T08:19:18;100825.43;;;27.33;38.49
77975;BME280;67164;51.202;0.278;2023-07-30T08:21:43;100829.76;;;27.54;38.57
77975;BME280;67164;51.202;0.278;2023-07-30T08:24:09;100830.52;;;27.36;38.55
77975;BME280;67164;51.202;0.278;2023-07-30T08:26:35;100830.67;;;27.31;38.65
77975;BME280;67164;51.202;0.278;2023-07-30T08:29:01;100828.85;;;27.31;38.62
77975;BME280;67164;51.202;0.278;2023-07-30T08:31:27;100830.59;;;27.54;38.68
77975;BME280;67164;51.202;0.278;2023-07-30T08:33:52;100824.96;;;27.35;38.60
77975;BME280;67164;51.202;0.278;2023-07-30T08:36:18;100826.31;;;27.20;38.76
77975;BME280;67164;51.202;0.278;2023-07-30T08:38:44;100820.87;;;27.12;38.92
77975;BME280;67164;51.202;0.278;2023-07-30T08:41:10;100818.56;;;27.25;38.71
77975;BME280;67164;51.202;0.278;2023-07-30T08:43:35;100819.43;;;27.24;38.70
77975;BME280;67164;51.202;0.278;2023-07-30T08:46:01;100822.30;;;27.24;38.71
77975;BME280;67164;51.202;0.278;2023-07-30T08:48:27;100829.24;;;27.26;38.73
77975;BME280;67164;51.202;0.278;2023-07-30T08:50:57;100834.68;;;27.47;38.64
77975;BME280;67164;51.202;0.278;2023-07-30T08:53:19;100828.82;;;27.07;38.90
77975;BME280;67164;51.202;0.278;2023-07-30T08:55:45;100831.29;;;27.42;38.75
77975;BME280;67164;51.202;0.278;2023-07-30T08:58:10;100820.31;;;27.19;38.79
77975;BME280;67164;51.202;0.278;2023-07-30T09:00:38;100824.04;;;27.26;38.73
77975;BME280;67164;51.202;0.278;2023-07-30T09:03:04;100828.22;;;27.20;38.86
77975;BME280;67164;51.202;0.278;2023-07-30T09:05:27;100826.87;;;27.44;38.83
77975;BME280;67164;51.202;0.278;2023-07-30T09:07:53;100830.25;;;27.47;38.83
77975;BME280;67164;51.202;0.278;2023-07-30T09:10:19;100828.12;;;27.13;38.96
77975;BME280;67164;51.202;0.278;2023-07-30T09:12:44;100837.29;;;27.31;38.56
77975;BME280;67164;51.202;0.278;2023-07-30T09:15:10;100837.02;;;27.26;38.75
77975;BME280;67164;51.202;0.278;2023-07-30T09:17:36;100840.29;;;27.36;38.93
77975;BME280;67164;51.202;0.278;2023-07-30T09:20:03;100837.41;;;26.87;39.02
77975;BME280;67164;51.202;0.278;2023-07-30T09:22:28;100842.60;;;27.08;38.86
77975;BME280;67164;51.202;0.278;2023-07-30T09:24:53;100841.36;;;27.05;38.70
77975;BME280;67164;51.202;0.278;2023-07-30T09:27:21;100842.70;;;27.04;38.90
77975;BME280;67164;51.202;0.278;2023-07-30T09:29:50;100837.25;;;27.20;38.73
77975;BME280;67164;51.202;0.278;2023-07-30T09:32:11;100846.43;;;27.18;38.79
77975;BME280;67164;51.202;0.278;2023-07-30T09:34:36;100847.72;;;27.17;38.94
77975;BME280;67164;51.202;0.278;2023-07-30T09:37:02;100847.06;;;27.25;38.68
77975;BME280;67164;51.202;0.278;2023-07-30T09:39:28;100845.05;;;27.13;38.91
77975;BME280;67164;51.202;0.278;2023-07-30T09:41:59;100848.32;;;27.12;38.92
77975;BME280;67164;51.202;0.278;2023-07-30T09:44:20;100841.92;;;27.21;38.88
77975;BME280;67164;51.202;0.278;2023-07-30T09:46:49;100839.75;;;27.19;38.94
77975;BME280;67164;51.202;0.278;2023-07-30T09:49:11;100836.27;;;27.20;38.87
77975;BME280;67164;51.202;0.278;2023-07-30T09:51:37;100836.56;;;27.21;38.77
77975;BME280;67164;51.202;0.278;2023-07-30T09:54:03;100831.92;;;27.07;39.02
77975;BME280;67164;51.202;0.278;2023-07-30T09:56:28;100839.63;;;27.23;38.85
77975;BME280;67164;51.202;0.278;2023-07-30T09:58:54;100840.99;;;27.15;38.87
77975;BME280;67164;51.202;0.278;2023-07-30T10:01:22;100839.13;;;27.12;38.89
77975;BME280;67164;51.202;0.278;2023-07-30T10:03:46;100843.90;;;27.03;38.97
77975;BME280;67164;51.202;0.278;2023-07-30T10:06:11;100844.30;;;27.06;38.95
77975;BME280;67164;51.202;0.278;2023-07-30T10:08:38;100843.77;;;27.12;38.86
77975;BME280;67164;51.202;0.278;2023-07-30T10:11:04;100847.47;;;27.28;38.94
77975;BME280;67164;51.202;0.278;2023-07-30T10:13:29;100855.43;;;27.02;38.93
77975;BME280;67164;51.202;0.278;2023-07-30T10:15:55;100861.05;;;27.05;38.97
77975;BME280;67164;51.202;0.278;2023-07-30T10:18:20;100859.97;;;26.98;38.96
77975;BME280;67164;51.202;0.278;2023-07-30T10:20:53;100861.11;;;27.26;38.94
77975;BME280;67164;51.202;0.278;2023-07-30T10:23:12;100864.09;;;26.95;38.93
77975;BME280;67164;51.202;0.278;2023-07-30T10:25:43;100866.47;;;26.99;38.83
77975;BME280;67164;51.202;0.278;2023-07-30T10:28:03;100861.35;;;27.19;38.99
77975;BME280;67164;51.202;0.278;2023-07-30T10:30:31;100865.30;;;26.92;39.00
77975;BME280;67164;51.202;0.278;2023-07-30T10:33:00;100870.63;;;27.07;39.20
77975;BME280;67164;51.202;0.278;2023-07-30T10:37:47;100874.68;;;27.07;39.13
77975;BME280;67164;51.202;0.278;2023-07-30T10:40:18;100877.04;;;26.84;39.14
77975;BME280;67164;51.202;0.278;2023-07-30T10:42:38;100872.88;;;27.30;39.20
77975;BME280;67164;51.202;0.278;2023-07-30T10:45:07;100877.21;;;26.77;39.24
77975;BME280;67164;51.202;0.278;2023-07-30T10:47:30;100872.10;;;27.17;38.98
77975;BME280;67164;51.202;0.278;2023-07-30T10:50:01;100873.98;;;27.15;39.01
77975;BME280;67164;51.202;0.278;2023-07-30T10:52:24;100877.47;;;27.09;39.08
77975;BME280;67164;51.202;0.278;2023-07-30T10:54:47;100880.19;;;26.91;39.03
77975;BME280;67164;51.202;0.278;2023-07-30T10:57:12;100879.70;;;26.94;38.99
77975;BME280;67164;51.202;0.278;2023-07-30T10:59:38;100874.12;;;27.31;38.76
77975;BME280;67164;51.202;0.278;2023-07-30T11:02:04;100873.45;;;27.20;38.88
77975;BME280;67164;51.202;0.278;2023-07-30T11:04:34;100877.57;;;27.19;38.96
77975;BME280;67164;51.202;0.278;2023-07-30T11:06:55;100881.01;;;27.05;38.79
77975;BME280;67164;51.202;0.278;2023-07-30T11:09:23;100882.04;;;26.96;38.85
77975;BME280;67164;51.202;0.278;2023-07-30T11:11:48;100882.04;;;26.96;38.88
77975;BME280;67164;51.202;0.278;2023-07-30T11:14:15;100884.67;;;26.91;38.86
77975;BME280;67164;51.202;0.278;2023-07-30T11:16:49;100881.14;;;26.96;39.21
77975;BME280;67164;51.202;0.278;2023-07-30T11:19:07;100881.13;;;26.88;39.08
77975;BME280;67164;51.202;0.278;2023-07-30T11:21:30;100890.73;;;27.12;38.98
77975;BME280;67164;51.202;0.278;2023-07-30T11:23:56;100893.83;;;27.17;38.98
77975;BME280;67164;51.202;0.278;2023-07-30T11:26:22;100900.73;;;26.75;39.21
77975;BME280;67164;51.202;0.278;2023-07-30T11:28:47;100902.30;;;26.87;39.34
77975;BME280;67164;51.202;0.278;2023-07-30T11:31:16;100901.44;;;26.84;39.43
77975;BME280;67164;51.202;0.278;2023-07-30T11:33:41;100901.04;;;26.74;39.21
77975;BME280;67164;51.202;0.278;2023-07-30T11:36:07;100906.24;;;26.59;39.29
77975;BME280;67164;51.202;0.278;2023-07-30T11:38:32;100912.62;;;26.68;39.47
77975;BME280;67164;51.202;0.278;2023-07-30T11:40:57;100909.20;;;26.74;39.47
77975;BME280;67164;51.202;0.278;2023-07-30T11:43:22;100908.17;;;27.00;39.68
77975;BME280;67164;51.202;0.278;2023-07-30T11:45:48;100905.26;;;26.72;39.59
77975;BME280;67164;51.202;0.278;2023-07-30T11:48:14;100917.59;;;26.84;39.76
77975;BME280;67164;51.202;0.278;2023-07-30T11:50:45;100914.47;;;26.49;40.15
77975;BME280;67164;51.202;0.278;2023-07-30T11:53:05;100912.86;;;26.31;40.23
77975;BME280;67164;51.202;0.278;2023-07-30T11:55:38;100916.13;;;26.79;40.08
77975;BME280;67164;51.202;0.278;2023-07-30T11:57:59;100913.69;;;26.49;40.18
77975;BME280;67164;51.202;0.278;2023-07-30T12:00:23;100911.15;;;26.76;40.20
77975;BME280;67164;51.202;0.278;2023-07-30T12:02:49;100898.63;;;26.59;40.02
77975;BME280;67164;51.202;0.278;2023-07-30T12:05:16;100896.93;;;26.88;40.12
77975;BME280;67164;51.202;0.278;2023-07-30T12:07:40;100899.06;;;26.88;40.22
77975;BME280;67164;51.202;0.278;2023-07-30T12:10:08;100897.99;;;26.55;40.31
77975;BME280;67164;51.202;0.278;2023-07-30T12:12:31;100900.04;;;26.87;40.22
77975;BME280;67164;51.202;0.278;2023-07-30T12:14:57;100906.43;;;26.52;40.58
77975;BME280;67164;51.202;0.278;2023-07-30T12:17:23;100907.19;;;26.47;40.74
77975;BME280;67164;51.202;0.278;2023-07-30T12:19:49;100908.40;;;26.58;40.45
77975;BME280;67164;51.202;0.278;2023-07-30T12:22:14;100910.74;;;26.75;40.78
77975;BME280;67164;51.202;0.278;2023-07-30T12:24:41;100908.70;;;26.68;40.76
77975;BME280;67164;51.202;0.278;2023-07-30T12:27:06;100907.20;;;26.39;40.95
77975;BME280;67164;51.202;0.278;2023-07-30T12:29:32;100908.91;;;26.39;41.04
77975;BME280;67164;51.202;0.278;2023-07-30T12:31:58;100902.46;;;26.56;40.94
77975;BME280;67164;51.202;0.278;2023-07-30T12:34:24;100903.66;;;26.70;40.91
77975;BME280;67164;51.202;0.278;2023-07-30T12:36:49;100902.23;;;26.56;41.07
77975;BME280;67164;51.202;0.278;2023-07-30T12:39:15;100901.54;;;26.36;41.28
77975;BME280;67164;51.202;0.278;2023-07-30T12:41:41;100903.44;;;26.27;41.48
77975;BME280;67164;51.202;0.278;2023-07-30T12:44:07;100904.29;;;26.70;41.33